sensor_id;sensor_type;location;lat;lon;timestamp;temperature;humidity
25718;DHT22;13574;52.040;5.692;2023-02-23T00:01:13;13.60;99.90
25718;DHT22;13574;52.040;5.692;2023-02-23T00:03:40;13.70;99.90
25718;DHT22;13574;52.040;5.692;2023-02-23T00:06:07;13.70;99.90
25718;DHT22;13574;52.040;5.692;2023-02-23T00:08:34;13.60;99.90
25718;DHT22;13574;52.040;5.692;2023-02-23T00:11:05;13.50;99.90
25718;DHT22;13574;52.040;5.692;2023-02-23T00:13:34;13.50;99.90
25718;DHT22;13574;52.040;5.692;2023-02-23T00:16:08;13.50;99.90
25718;DHT22;13574;52.040;5.692;2023-02-23T00:18:37;13.40;99.90
25718;DHT22;13574;52.040;5.692;2023-02-23T00:21:14;13.40;99.90
25718;DHT22;13574;52.040;5.692;2023-02-23T00:23:41;13.50;99.90
25718;DHT22;13574;52.040;5.692;2023-02-23T00:26:07;13.40;99.90
25718;DHT22;13574;52.040;5.692;2023-02-23T00:28:33;13.20;99.90
25718;DHT22;13574;52.040;5.692;2023-02-23T00:31:01;13.30;99.90
25718;DHT22;13574;52.040;5.692;2023-02-23T00:33:27;13.30;99.90
25718;DHT22;13574;52.040;5.692;2023-02-23T00:36:02;13.30;99.90
25718;DHT22;13574;52.040;5.692;2023-02-23T00:38:28;13.30;99.90
25718;DHT22;13574;52.040;5.692;2023-02-23T00:40:59;13.40;99.90
25718;DHT22;13574;52.040;5.692;2023-02-23T00:43:24;13.30;99.90
25718;DHT22;13574;52.040;5.692;2023-02-23T00:45:55;13.20;99.90
25718;DHT22;13574;52.040;5.692;2023-02-23T00:48:21;13.30;99.90
25718;DHT22;13574;52.040;5.692;2023-02-23T00:50:46;13.40;99.90
25718;DHT22;13574;52.040;5.692;2023-02-23T00:53:15;13.40;99.90
25718;DHT22;13574;52.040;5.692;2023-02-23T00:55:40;13.40;99.90
25718;DHT22;13574;52.040;5.692;2023-02-23T00:58:06;13.40;99.90
25718;DHT22;13574;52.040;5.692;2023-02-23T01:00:34;13.30;99.90
25718;DHT22;13574;52.040;5.692;2023-02-23T01:03:06;13.40;99.90
25718;DHT22;13574;52.040;5.692;2023-02-23T01:05:35;13.40;99.90
25718;DHT22;13574;52.040;5.692;2023-02-23T01:08:00;13.20;99.90
25718;DHT22;13574;52.040;5.692;2023-02-23T01:10:26;13.30;99.90
25718;DHT22;13574;52.040;5.692;2023-02-23T01:12:52;13.30;99.90
25718;DHT22;13574;52.040;5.692;2023-02-23T01:15:19;13.30;99.90
25718;DHT22;13574;52.040;5.692;2023-02-23T01:17:46;13.40;99.90
25718;DHT22;13574;52.040;5.692;2023-02-23T01:20:14;13.40;99.90
25718;DHT22;13574;52.040;5.692;2023-02-23T01:22:48;13.50;99.90
25718;DHT22;13574;52.040;5.692;2023-02-23T01:25:14;13.40;99.90
25718;DHT22;13574;52.040;5.692;2023-02-23T01:27:41;13.40;99.90
25718;DHT22;13574;52.040;5.692;2023-02-23T01:30:09;13.40;99.90
25718;DHT22;13574;52.040;5.692;2023-02-23T01:32:36;13.50;99.90
25718;DHT22;13574;52.040;5.692;2023-02-23T01:35:07;13.50;99.90
25718;DHT22;13574;52.040;5.692;2023-02-23T01:37:34;13.40;99.90
25718;DHT22;13574;52.040;5.692;2023-02-23T01:40:01;13.50;99.90
25718;DHT22;13574;52.040;5.692;2023-02-23T01:42:36;13.50;99.90
25718;DHT22;13574;52.040;5.692;2023-02-23T01:45:32;13.50;99.90
25718;DHT22;13574;52.040;5.692;2023-02-23T01:48:15;13.50;99.90
25718;DHT22;13574;52.040;5.692;2023-02-23T01:50:53;13.60;99.90
25718;DHT22;13574;52.040;5.692;2023-02-23T01:53:19;13.50;99.90
25718;DHT22;13574;52.040;5.692;2023-02-23T01:55:53;13.50;99.90
25718;DHT22;13574;52.040;5.692;2023-02-23T01:58:21;13.30;99.90
25718;DHT22;13574;52.040;5.692;2023-02-23T02:00:50;13.10;99.90
25718;DHT22;13574;52.040;5.692;2023-02-23T02:03:36;13.10;99.90
25718;DHT22;13574;52.040;5.692;2023-02-23T02:06:04;13.20;99.90
25718;DHT22;13574;52.040;5.692;2023-02-23T02:08:37;13.30;99.90
25718;DHT22;13574;52.040;5.692;2023-02-23T02:11:10;13.30;99.90
25718;DHT22;13574;52.040;5.692;2023-02-23T02:14:00;13.40;99.90
25718;DHT22;13574;52.040;5.692;2023-02-23T02:27:33;13.10;99.90
25718;DHT22;13574;52.040;5.692;2023-02-23T02:36:00;12.90;99.90
25718;DHT22;13574;52.040;5.692;2023-02-23T02:44:20;12.90;99.90
25718;DHT22;13574;52.040;5.692;2023-02-23T02:46:53;13.10;99.90
25718;DHT22;13574;52.040;5.692;2023-02-23T02:49:29;13.10;99.90
25718;DHT22;13574;52.040;5.692;2023-02-23T02:52:15;13.20;99.90
25718;DHT22;13574;52.040;5.692;2023-02-23T02:54:51;13.20;99.90
25718;DHT22;13574;52.040;5.692;2023-02-23T02:57:19;13.20;99.90
25718;DHT22;13574;52.040;5.692;2023-02-23T02:59:48;13.20;99.90
25718;DHT22;13574;52.040;5.692;2023-02-23T03:02:36;12.90;99.90
25718;DHT22;13574;52.040;5.692;2023-02-23T03:05:27;13.00;99.90
25718;DHT22;13574;52.040;5.692;2023-02-23T03:08:36;13.00;99.90
25718;DHT22;13574;52.040;5.692;2023-02-23T03:11:24;13.20;99.90
25718;DHT22;13574;52.040;5.692;2023-02-23T03:14:22;13.10;99.90
25718;DHT22;13574;52.040;5.692;2023-02-23T03:17:44;13.10;99.90
25718;DHT22;13574;52.040;5.692;2023-02-23T03:20:41;13.10;99.90
25718;DHT22;13574;52.040;5.692;2023-02-23T03:23:34;13.10;99.90
25718;DHT22;13574;52.040;5.692;2023-02-23T03:32:40;13.10;99.90
25718;DHT22;13574;52.040;5.692;2023-02-23T03:35:34;13.10;99.90
25718;DHT22;13574;52.040;5.692;2023-02-23T03:38:46;13.10;99.90
25718;DHT22;13574;52.040;5.692;2023-02-23T03:41:33;13.10;99.90
25718;DHT22;13574;52.040;5.692;2023-02-23T03:44:24;13.10;99.90
25718;DHT22;13574;52.040;5.692;2023-02-23T03:47:12;13.10;99.90
25718;DHT22;13574;52.040;5.692;2023-02-23T03:49:59;13.10;99.90
25718;DHT22;13574;52.040;5.692;2023-02-23T03:52:52;13.00;99.90
25718;DHT22;13574;52.040;5.692;2023-02-23T03:55:41;12.90;99.90
25718;DHT22;13574;52.040;5.692;2023-02-23T03:58:31;13.00;99.90
25718;DHT22;13574;52.040;5.692;2023-02-23T04:01:18;13.00;99.90
25718;DHT22;13574;52.040;5.692;2023-02-23T04:04:05;13.00;99.90
25718;DHT22;13574;52.040;5.692;2023-02-23T04:06:50;12.80;99.90
25718;DHT22;13574;52.040;5.692;2023-02-23T04:09:36;12.80;99.90
25718;DHT22;13574;52.040;5.692;2023-02-23T04:12:37;12.80;99.90
25718;DHT22;13574;52.040;5.692;2023-02-23T04:15:29;12.80;99.90
25718;DHT22;13574;52.040;5.692;2023-02-23T04:17:56;12.90;99.90
25718;DHT22;13574;52.040;5.692;2023-02-23T04:20:22;12.90;99.90
25718;DHT22;13574;52.040;5.692;2023-02-23T04:22:49;12.90;99.90
25718;DHT22;13574;52.040;5.692;2023-02-23T04:25:16;12.90;99.90
25718;DHT22;13574;52.040;5.692;2023-02-23T04:27:42;12.80;99.90
25718;DHT22;13574;52.040;5.692;2023-02-23T04:30:08;12.70;99.90
25718;DHT22;13574;52.040;5.692;2023-02-23T04:32:36;12.40;99.90
25718;DHT22;13574;52.040;5.692;2023-02-23T04:35:02;12.50;99.90
25718;DHT22;13574;52.040;5.692;2023-02-23T04:37:28;12.50;99.90
25718;DHT22;13574;52.040;5.692;2023-02-23T04:39:53;12.70;99.90
25718;DHT22;13574;52.040;5.692;2023-02-23T04:42:19;12.60;99.90
25718;DHT22;13574;52.040;5.692;2023-02-23T04:44:45;12.70;99.90
25718;DHT22;13574;52.040;5.692;2023-02-23T04:47:11;12.70;99.90
25718;DHT22;13574;52.040;5.692;2023-02-23T04:49:37;12.80;99.90
25718;DHT22;13574;52.040;5.692;2023-02-23T04:52:03;12.80;99.90
25718;DHT22;13574;52.040;5.692;2023-02-23T04:54:28;12.70;99.90
25718;DHT22;13574;52.040;5.692;2023-02-23T04:56:54;12.70;99.90
25718;DHT22;13574;52.040;5.692;2023-02-23T04:59:20;12.70;99.90
25718;DHT22;13574;52.040;5.692;2023-02-23T05:01:45;12.60;99.90
25718;DHT22;13574;52.040;5.692;2023-02-23T05:04:11;12.70;99.90
25718;DHT22;13574;52.040;5.692;2023-02-23T05:06:37;12.70;99.90
25718;DHT22;13574;52.040;5.692;2023-02-23T05:09:03;12.80;99.90
25718;DHT22;13574;52.040;5.692;2023-02-23T05:11:31;12.80;99.90
25718;DHT22;13574;52.040;5.692;2023-02-23T05:13:56;12.80;99.90
25718;DHT22;13574;52.040;5.692;2023-02-23T05:16:22;12.80;99.90
25718;DHT22;13574;52.040;5.692;2023-02-23T05:18:48;12.80;99.90
25718;DHT22;13574;52.040;5.692;2023-02-23T05:21:14;12.80;99.90
25718;DHT22;13574;52.040;5.692;2023-02-23T05:23:40;12.80;99.90
25718;DHT22;13574;52.040;5.692;2023-02-23T05:26:10;12.80;99.90
25718;DHT22;13574;52.040;5.692;2023-02-23T05:28:38;12.80;99.90
25718;DHT22;13574;52.040;5.692;2023-02-23T05:31:05;12.80;99.90
25718;DHT22;13574;52.040;5.692;2023-02-23T05:33:32;12.80;99.90
25718;DHT22;13574;52.040;5.692;2023-02-23T05:35:57;12.80;99.90
25718;DHT22;13574;52.040;5.692;2023-02-23T05:38:24;12.70;99.90
25718;DHT22;13574;52.040;5.692;2023-02-23T05:40:50;12.70;99.90
25718;DHT22;13574;52.040;5.692;2023-02-23T05:43:16;12.70;99.90
25718;DHT22;13574;52.040;5.692;2023-02-23T05:45:42;12.50;99.90
25718;DHT22;13574;52.040;5.692;2023-02-23T05:48:10;12.60;99.90
25718;DHT22;13574;52.040;5.692;2023-02-23T05:50:35;12.60;99.90
25718;DHT22;13574;52.040;5.692;2023-02-23T05:53:01;12.60;99.90
25718;DHT22;13574;52.040;5.692;2023-02-23T05:55:27;12.50;99.90
25718;DHT22;13574;52.040;5.692;2023-02-23T05:57:53;12.60;99.90
25718;DHT22;13574;52.040;5.692;2023-02-23T06:00:19;12.60;99.90
25718;DHT22;13574;52.040;5.692;2023-02-23T06:02:44;12.50;99.90
25718;DHT22;13574;52.040;5.692;2023-02-23T06:05:11;12.40;99.90
25718;DHT22;13574;52.040;5.692;2023-02-23T06:07:37;12.40;99.90
25718;DHT22;13574;52.040;5.692;2023-02-23T06:10:04;12.50;99.90
25718;DHT22;13574;52.040;5.692;2023-02-23T06:12:30;12.40;99.90
25718;DHT22;13574;52.040;5.692;2023-02-23T06:14:55;12.30;99.90
25718;DHT22;13574;52.040;5.692;2023-02-23T06:17:22;12.50;99.90
25718;DHT22;13574;52.040;5.692;2023-02-23T06:19:47;12.50;99.90
25718;DHT22;13574;52.040;5.692;2023-02-23T06:22:14;12.50;99.90
25718;DHT22;13574;52.040;5.692;2023-02-23T06:24:42;12.50;99.90
25718;DHT22;13574;52.040;5.692;2023-02-23T06:27:07;12.50;99.90
25718;DHT22;13574;52.040;5.692;2023-02-23T06:29:33;12.60;99.90
25718;DHT22;13574;52.040;5.692;2023-02-23T06:31:59;12.60;99.90
25718;DHT22;13574;52.040;5.692;2023-02-23T06:34:24;12.50;99.90
25718;DHT22;13574;52.040;5.692;2023-02-23T06:36:50;12.40;99.90
25718;DHT22;13574;52.040;5.692;2023-02-23T06:39:16;12.30;99.90
25718;DHT22;13574;52.040;5.692;2023-02-23T06:41:41;12.20;99.90
25718;DHT22;13574;52.040;5.692;2023-02-23T06:44:07;11.80;99.90
25718;DHT22;13574;52.040;5.692;2023-02-23T06:46:33;11.80;99.90
25718;DHT22;13574;52.040;5.692;2023-02-23T06:48:59;11.60;99.90
25718;DHT22;13574;52.040;5.692;2023-02-23T06:51:25;11.90;99.90
25718;DHT22;13574;52.040;5.692;2023-02-23T06:53:51;12.10;99.90
25718;DHT22;13574;52.040;5.692;2023-02-23T06:56:20;12.20;99.90
25718;DHT22;13574;52.040;5.692;2023-02-23T06:58:46;12.30;99.90
25718;DHT22;13574;52.040;5.692;2023-02-23T07:01:12;12.00;99.90
25718;DHT22;13574;52.040;5.692;2023-02-23T07:03:38;12.00;99.90
25718;DHT22;13574;52.040;5.692;2023-02-23T07:06:04;12.20;99.90
25718;DHT22;13574;52.040;5.692;2023-02-23T07:08:31;12.30;99.90
25718;DHT22;13574;52.040;5.692;2023-02-23T07:11:07;12.10;99.90
25718;DHT22;13574;52.040;5.692;2023-02-23T07:13:33;12.20;99.90
25718;DHT22;13574;52.040;5.692;2023-02-23T07:15:58;12.40;99.90
25718;DHT22;13574;52.040;5.692;2023-02-23T07:18:24;12.50;99.90
25718;DHT22;13574;52.040;5.692;2023-02-23T07:20:50;12.30;99.90
25718;DHT22;13574;52.040;5.692;2023-02-23T07:23:18;12.50;99.90
25718;DHT22;13574;52.040;5.692;2023-02-23T07:25:44;12.60;99.90
25718;DHT22;13574;52.040;5.692;2023-02-23T07:28:10;12.40;99.90
25718;DHT22;13574;52.040;5.692;2023-02-23T07:30:39;12.60;99.90
25718;DHT22;13574;52.040;5.692;2023-02-23T07:33:05;12.70;99.90
25718;DHT22;13574;52.040;5.692;2023-02-23T07:35:30;12.70;99.90
25718;DHT22;13574;52.040;5.692;2023-02-23T07:37:56;12.80;99.90
25718;DHT22;13574;52.040;5.692;2023-02-23T07:40:22;12.90;99.90
25718;DHT22;13574;52.040;5.692;2023-02-23T07:42:48;12.70;99.90
25718;DHT22;13574;52.040;5.692;2023-02-23T07:45:13;12.80;99.90
25718;DHT22;13574;52.040;5.692;2023-02-23T07:47:39;12.80;99.90
25718;DHT22;13574;52.040;5.692;2023-02-23T07:50:06;12.90;99.90
25718;DHT22;13574;52.040;5.692;2023-02-23T07:52:38;12.90;99.90
25718;DHT22;13574;52.040;5.692;2023-02-23T07:55:06;12.80;99.90
25718;DHT22;13574;52.040;5.692;2023-02-23T07:57:32;12.90;99.90
25718;DHT22;13574;52.040;5.692;2023-02-23T07:59:58;12.60;99.90
25718;DHT22;13574;52.040;5.692;2023-02-23T08:02:24;12.50;99.90
25718;DHT22;13574;52.040;5.692;2023-02-23T08:04:50;12.70;99.90
25718;DHT22;13574;52.040;5.692;2023-02-23T08:07:18;12.60;99.90
25718;DHT22;13574;52.040;5.692;2023-02-23T08:09:44;12.70;99.90
25718;DHT22;13574;52.040;5.692;2023-02-23T08:12:10;12.80;99.90
25718;DHT22;13574;52.040;5.692;2023-02-23T08:14:36;12.80;99.90
25718;DHT22;13574;52.040;5.692;2023-02-23T08:17:02;12.80;99.90
25718;DHT22;13574;52.040;5.692;2023-02-23T08:19:28;12.50;99.90
25718;DHT22;13574;52.040;5.692;2023-02-23T08:22:03;12.30;99.90
25718;DHT22;13574;52.040;5.692;2023-02-23T08:24:29;12.20;99.90
25718;DHT22;13574;52.040;5.692;2023-02-23T08:27:00;12.20;99.90
25718;DHT22;13574;52.040;5.692;2023-02-23T08:29:26;12.50;99.90
25718;DHT22;13574;52.040;5.692;2023-02-23T08:31:51;12.60;99.90
25718;DHT22;13574;52.040;5.692;2023-02-23T08:34:18;12.70;99.90
25718;DHT22;13574;52.040;5.692;2023-02-23T08:36:45;12.80;99.90
25718;DHT22;13574;52.040;5.692;2023-02-23T08:39:11;12.70;99.90
25718;DHT22;13574;52.040;5.692;2023-02-23T08:41:38;12.90;99.90
25718;DHT22;13574;52.040;5.692;2023-02-23T08:44:04;13.00;99.90
25718;DHT22;13574;52.040;5.692;2023-02-23T08:46:30;12.90;99.90
25718;DHT22;13574;52.040;5.692;2023-02-23T08:48:56;12.90;99.90
25718;DHT22;13574;52.040;5.692;2023-02-23T08:51:22;13.00;99.90
25718;DHT22;13574;52.040;5.692;2023-02-23T08:53:47;13.00;99.90
25718;DHT22;13574;52.040;5.692;2023-02-23T08:56:13;13.00;99.90
25718;DHT22;13574;52.040;5.692;2023-02-23T08:58:40;13.00;99.90
25718;DHT22;13574;52.040;5.692;2023-02-23T09:01:06;12.70;99.90
25718;DHT22;13574;52.040;5.692;2023-02-23T09:03:32;12.80;99.90
25718;DHT22;13574;52.040;5.692;2023-02-23T09:06:10;13.00;99.90
25718;DHT22;13574;52.040;5.692;2023-02-23T09:08:36;13.00;99.90
25718;DHT22;13574;52.040;5.692;2023-02-23T09:11:03;12.90;99.90
25718;DHT22;13574;52.040;5.692;2023-02-23T09:13:29;12.90;99.90
25718;DHT22;13574;52.040;5.692;2023-02-23T09:15:55;12.90;99.90
25718;DHT22;13574;52.040;5.692;2023-02-23T09:18:21;13.10;99.90
25718;DHT22;13574;52.040;5.692;2023-02-23T09:20:48;13.10;99.90
25718;DHT22;13574;52.040;5.692;2023-02-23T09:23:14;13.20;99.90
25718;DHT22;13574;52.040;5.692;2023-02-23T09:25:43;13.30;99.90
25718;DHT22;13574;52.040;5.692;2023-02-23T09:28:16;13.30;99.90
25718;DHT22;13574;52.040;5.692;2023-02-23T09:30:43;13.20;99.90
25718;DHT22;13574;52.040;5.692;2023-02-23T09:33:09;13.30;99.90
25718;DHT22;13574;52.040;5.692;2023-02-23T09:35:36;13.20;99.90
25718;DHT22;13574;52.040;5.692;2023-02-23T09:38:03;13.30;99.90
25718;DHT22;13574;52.040;5.692;2023-02-23T09:40:50;13.40;99.90
25718;DHT22;13574;52.040;5.692;2023-02-23T09:46:10;13.40;99.90
25718;DHT22;13574;52.040;5.692;2023-02-23T09:48:39;13.30;99.90
25718;DHT22;13574;52.040;5.692;2023-02-23T09:51:06;13.40;99.90
25718;DHT22;13574;52.040;5.692;2023-02-23T09:53:46;13.30;99.90
25718;DHT22;13574;52.040;5.692;2023-02-23T09:56:37;13.50;99.90
25718;DHT22;13574;52.040;5.692;2023-02-23T09:59:05;13.50;99.90
25718;DHT22;13574;52.040;5.692;2023-02-23T10:04:20;13.90;99.90
25718;DHT22;13574;52.040;5.692;2023-02-23T10:09:46;13.90;99.90
25718;DHT22;13574;52.040;5.692;2023-02-23T10:12:40;14.00;99.90
25718;DHT22;13574;52.040;5.692;2023-02-23T10:18:20;14.00;99.90
25718;DHT22;13574;52.040;5.692;2023-02-23T10:23:21;13.20;99.90
25718;DHT22;13574;52.040;5.692;2023-02-23T10:25:49;13.20;99.90
25718;DHT22;13574;52.040;5.692;2023-02-23T10:28:19;13.40;99.90
25718;DHT22;13574;52.040;5.692;2023-02-23T10:30:47;13.60;99.90
25718;DHT22;13574;52.040;5.692;2023-02-23T10:33:34;13.70;99.90
25718;DHT22;13574;52.040;5.692;2023-02-23T10:36:30;13.70;99.90
25718;DHT22;13574;52.040;5.692;2023-02-23T10:38:59;13.90;99.90
25718;DHT22;13574;52.040;5.692;2023-02-23T10:41:25;13.90;99.90
25718;DHT22;13574;52.040;5.692;2023-02-23T10:43:50;13.80;99.90
25718;DHT22;13574;52.040;5.692;2023-02-23T10:46:22;13.70;99.90
25718;DHT22;13574;52.040;5.692;2023-02-23T10:48:50;13.70;99.90
25718;DHT22;13574;52.040;5.692;2023-02-23T10:51:24;13.70;99.90
25718;DHT22;13574;52.040;5.692;2023-02-23T10:53:52;13.60;99.90
25718;DHT22;13574;52.040;5.692;2023-02-23T10:56:18;13.50;99.90
25718;DHT22;13574;52.040;5.692;2023-02-23T10:58:50;13.40;99.90
25718;DHT22;13574;52.040;5.692;2023-02-23T11:04:21;13.50;99.90
25718;DHT22;13574;52.040;5.692;2023-02-23T11:06:48;13.70;99.90
25718;DHT22;13574;52.040;5.692;2023-02-23T11:09:29;13.60;99.90
25718;DHT22;13574;52.040;5.692;2023-02-23T11:11:59;13.70;99.90
25718;DHT22;13574;52.040;5.692;2023-02-23T11:14:28;13.60;99.90
25718;DHT22;13574;52.040;5.692;2023-02-23T11:16:58;13.80;99.90
25718;DHT22;13574;52.040;5.692;2023-02-23T11:19:35;13.90;99.90
25718;DHT22;13574;52.040;5.692;2023-02-23T11:22:05;14.00;99.90
25718;DHT22;13574;52.040;5.692;2023-02-23T11:24:36;13.60;99.90
25718;DHT22;13574;52.040;5.692;2023-02-23T11:27:05;13.70;99.90
25718;DHT22;13574;52.040;5.692;2023-02-23T11:29:35;13.40;99.90
25718;DHT22;13574;52.040;5.692;2023-02-23T11:32:13;13.60;99.90
25718;DHT22;13574;52.040;5.692;2023-02-23T11:34:40;13.70;99.90
25718;DHT22;13574;52.040;5.692;2023-02-23T11:37:30;13.50;99.90
25718;DHT22;13574;52.040;5.692;2023-02-23T11:39:58;13.60;99.90
25718;DHT22;13574;52.040;5.692;2023-02-23T11:42:26;13.30;99.90
25718;DHT22;13574;52.040;5.692;2023-02-23T11:47:28;13.80;99.90
25718;DHT22;13574;52.040;5.692;2023-02-23T11:49:55;14.00;99.90
25718;DHT22;13574;52.040;5.692;2023-02-23T11:52:23;14.20;99.90
25718;DHT22;13574;52.040;5.692;2023-02-23T11:54:59;14.00;99.90
25718;DHT22;13574;52.040;5.692;2023-02-23T11:57:29;14.00;99.90
25718;DHT22;13574;52.040;5.692;2023-02-23T11:59:56;14.10;99.90
25718;DHT22;13574;52.040;5.692;2023-02-23T12:05:03;13.30;99.90
25718;DHT22;13574;52.040;5.692;2023-02-23T12:10:53;13.50;99.90
25718;DHT22;13574;52.040;5.692;2023-02-23T12:15:39;13.60;99.90
25718;DHT22;13574;52.040;5.692;2023-02-23T12:18:40;13.30;99.90
25718;DHT22;13574;52.040;5.692;2023-02-23T12:21:29;13.20;99.90
25718;DHT22;13574;52.040;5.692;2023-02-23T12:26:58;13.00;99.90
25718;DHT22;13574;52.040;5.692;2023-02-23T12:29:53;12.90;99.90
25718;DHT22;13574;52.040;5.692;2023-02-23T12:32:24;13.00;99.90
25718;DHT22;13574;52.040;5.692;2023-02-23T12:34:56;13.30;99.90
25718;DHT22;13574;52.040;5.692;2023-02-23T12:39:56;13.40;99.90
25718;DHT22;13574;52.040;5.692;2023-02-23T12:42:56;13.30;99.90
25718;DHT22;13574;52.040;5.692;2023-02-23T12:45:49;13.40;99.90
25718;DHT22;13574;52.040;5.692;2023-02-23T12:51:34;13.50;99.90
25718;DHT22;13574;52.040;5.692;2023-02-23T12:54:01;13.30;99.90
25718;DHT22;13574;52.040;5.692;2023-02-23T12:56:29;12.50;99.90
25718;DHT22;13574;52.040;5.692;2023-02-23T12:59:23;12.60;99.90
25718;DHT22;13574;52.040;5.692;2023-02-23T13:01:58;12.20;99.90
25718;DHT22;13574;52.040;5.692;2023-02-23T13:07:50;11.50;99.90
25718;DHT22;13574;52.040;5.692;2023-02-23T13:15:38;11.80;99.90
25718;DHT22;13574;52.040;5.692;2023-02-23T13:18:48;12.20;99.90
25718;DHT22;13574;52.040;5.692;2023-02-23T13:21:16;12.70;99.90
25718;DHT22;13574;52.040;5.692;2023-02-23T13:26:51;13.20;99.90
25718;DHT22;13574;52.040;5.692;2023-02-23T13:29:35;13.60;99.90
25718;DHT22;13574;52.040;5.692;2023-02-23T13:32:03;13.70;99.90
25718;DHT22;13574;52.040;5.692;2023-02-23T13:34:35;13.20;99.90
25718;DHT22;13574;52.040;5.692;2023-02-23T13:37:05;13.30;99.90
25718;DHT22;13574;52.040;5.692;2023-02-23T13:47:48;13.70;99.90
25718;DHT22;13574;52.040;5.692;2023-02-23T13:50:36;13.70;99.90
25718;DHT22;13574;52.040;5.692;2023-02-23T13:53:14;13.90;99.90
25718;DHT22;13574;52.040;5.692;2023-02-23T13:55:50;13.80;99.90
25718;DHT22;13574;52.040;5.692;2023-02-23T13:58:28;13.60;99.90
25718;DHT22;13574;52.040;5.692;2023-02-23T14:01:08;13.10;99.90
25718;DHT22;13574;52.040;5.692;2023-02-23T14:03:43;13.40;99.90
25718;DHT22;13574;52.040;5.692;2023-02-23T14:06:13;13.70;99.90
25718;DHT22;13574;52.040;5.692;2023-02-23T14:08:42;13.80;99.90
25718;DHT22;13574;52.040;5.692;2023-02-23T14:11:09;14.00;99.90
25718;DHT22;13574;52.040;5.692;2023-02-23T14:14:00;14.20;99.90
25718;DHT22;13574;52.040;5.692;2023-02-23T14:16:26;13.70;99.90
25718;DHT22;13574;52.040;5.692;2023-02-23T14:19:03;13.20;99.90
25718;DHT22;13574;52.040;5.692;2023-02-23T14:21:34;13.00;99.90
25718;DHT22;13574;52.040;5.692;2023-02-23T14:24:22;13.30;99.90
25718;DHT22;13574;52.040;5.692;2023-02-23T14:29:42;13.90;99.90
25718;DHT22;13574;52.040;5.692;2023-02-23T14:34:58;13.00;99.90
25718;DHT22;13574;52.040;5.692;2023-02-23T14:39:52;12.50;99.90
25718;DHT22;13574;52.040;5.692;2023-02-23T14:42:26;12.10;99.90
25718;DHT22;13574;52.040;5.692;2023-02-23T14:44:53;11.70;99.90
25718;DHT22;13574;52.040;5.692;2023-02-23T14:47:25;11.90;99.90
25718;DHT22;13574;52.040;5.692;2023-02-23T14:49:59;12.30;99.90
25718;DHT22;13574;52.040;5.692;2023-02-23T14:52:32;12.40;99.90
25718;DHT22;13574;52.040;5.692;2023-02-23T14:57:39;12.80;99.90
25718;DHT22;13574;52.040;5.692;2023-02-23T15:00:25;12.80;99.90
25718;DHT22;13574;52.040;5.692;2023-02-23T15:02:57;12.80;99.90
25718;DHT22;13574;52.040;5.692;2023-02-23T15:05:30;12.80;99.90
25718;DHT22;13574;52.040;5.692;2023-02-23T15:07:58;12.70;99.90
25718;DHT22;13574;52.040;5.692;2023-02-23T15:10:44;12.80;99.90
25718;DHT22;13574;52.040;5.692;2023-02-23T15:13:25;13.10;99.90
25718;DHT22;13574;52.040;5.692;2023-02-23T15:15:51;13.00;99.90
25718;DHT22;13574;52.040;5.692;2023-02-23T15:18:27;13.20;99.90
25718;DHT22;13574;52.040;5.692;2023-02-23T15:20:54;13.40;99.90
25718;DHT22;13574;52.040;5.692;2023-02-23T15:23:20;13.50;99.90
25718;DHT22;13574;52.040;5.692;2023-02-23T15:25:46;13.50;99.90
25718;DHT22;13574;52.040;5.692;2023-02-23T15:28:24;13.50;99.90
25718;DHT22;13574;52.040;5.692;2023-02-23T15:30:54;12.90;99.90
25718;DHT22;13574;52.040;5.692;2023-02-23T15:33:21;12.60;99.90
25718;DHT22;13574;52.040;5.692;2023-02-23T15:38:33;12.80;99.90
25718;DHT22;13574;52.040;5.692;2023-02-23T15:41:06;12.70;99.90
25718;DHT22;13574;52.040;5.692;2023-02-23T15:43:33;12.90;99.90
25718;DHT22;13574;52.040;5.692;2023-02-23T15:46:01;12.50;99.90
25718;DHT22;13574;52.040;5.692;2023-02-23T15:48:41;12.70;99.90
25718;DHT22;13574;52.040;5.692;2023-02-23T15:51:35;12.50;99.90
25718;DHT22;13574;52.040;5.692;2023-02-23T15:54:36;12.60;99.90
25718;DHT22;13574;52.040;5.692;2023-02-23T15:57:20;12.80;99.90
25718;DHT22;13574;52.040;5.692;2023-02-23T15:59:49;12.80;99.90
25718;DHT22;13574;52.040;5.692;2023-02-23T16:02:19;12.40;99.90
25718;DHT22;13574;52.040;5.692;2023-02-23T16:04:48;12.30;99.90
25718;DHT22;13574;52.040;5.692;2023-02-23T16:07:24;12.70;99.90
25718;DHT22;13574;52.040;5.692;2023-02-23T16:09:53;12.90;99.90
25718;DHT22;13574;52.040;5.692;2023-02-23T16:12:27;13.20;99.90
25718;DHT22;13574;52.040;5.692;2023-02-23T16:15:05;13.30;99.90
25718;DHT22;13574;52.040;5.692;2023-02-23T16:17:46;13.40;99.90
25718;DHT22;13574;52.040;5.692;2023-02-23T16:23:40;13.10;99.90
25718;DHT22;13574;52.040;5.692;2023-02-23T16:26:08;13.20;99.90
25718;DHT22;13574;52.040;5.692;2023-02-23T16:28:38;13.30;99.90
25718;DHT22;13574;52.040;5.692;2023-02-23T16:31:06;13.30;99.90
25718;DHT22;13574;52.040;5.692;2023-02-23T16:36:22;13.00;99.90
25718;DHT22;13574;52.040;5.692;2023-02-23T16:38:57;12.30;99.90
25718;DHT22;13574;52.040;5.692;2023-02-23T16:41:25;12.10;99.90
25718;DHT22;13574;52.040;5.692;2023-02-23T16:43:54;11.70;99.90
25718;DHT22;13574;52.040;5.692;2023-02-23T16:46:23;11.90;99.90
25718;DHT22;13574;52.040;5.692;2023-02-23T16:48:49;11.80;99.90
25718;DHT22;13574;52.040;5.692;2023-02-23T16:51:17;11.10;99.90
25718;DHT22;13574;52.040;5.692;2023-02-23T16:53:43;10.90;99.90
25718;DHT22;13574;52.040;5.692;2023-02-23T16:56:28;11.20;99.90
25718;DHT22;13574;52.040;5.692;2023-02-23T16:59:00;11.40;99.90
25718;DHT22;13574;52.040;5.692;2023-02-23T17:01:27;10.90;99.90
25718;DHT22;13574;52.040;5.692;2023-02-23T17:03:52;10.80;99.90
25718;DHT22;13574;52.040;5.692;2023-02-23T17:06:19;11.00;99.90
25718;DHT22;13574;52.040;5.692;2023-02-23T17:08:45;11.10;99.90
25718;DHT22;13574;52.040;5.692;2023-02-23T17:11:11;10.80;99.90
25718;DHT22;13574;52.040;5.692;2023-02-23T17:13:37;10.70;99.90
25718;DHT22;13574;52.040;5.692;2023-02-23T17:16:05;10.80;99.90
25718;DHT22;13574;52.040;5.692;2023-02-23T17:18:34;11.20;99.90
25718;DHT22;13574;52.040;5.692;2023-02-23T17:21:02;11.00;99.90
25718;DHT22;13574;52.040;5.692;2023-02-23T17:23:30;11.00;99.90
25718;DHT22;13574;52.040;5.692;2023-02-23T17:26:37;11.00;99.90
25718;DHT22;13574;52.040;5.692;2023-02-23T17:29:04;10.90;99.90
25718;DHT22;13574;52.040;5.692;2023-02-23T17:31:29;10.30;99.90
25718;DHT22;13574;52.040;5.692;2023-02-23T17:33:56;10.50;99.90
25718;DHT22;13574;52.040;5.692;2023-02-23T17:36:22;10.80;99.90
25718;DHT22;13574;52.040;5.692;2023-02-23T17:38:48;11.00;99.90
25718;DHT22;13574;52.040;5.692;2023-02-23T17:41:18;10.90;99.90
25718;DHT22;13574;52.040;5.692;2023-02-23T17:43:44;10.60;99.90